Orbital elements of FENGYUN 1C DEB
| Launched | 9 May 1999 |
| Flight ended | – |
| Launch site | Taiyuan Space Center, PRC |
| Owner | People's Republic of China |
| NORAD ID | 30744 |
| Date fetched |
Epoch osculation |
Inc. [°] |
Ecc. | RA asc node [hr] |
Arg Peri. [°] |
Mean anom [°] |
Mean motion [rev/day] |
Abs. mag |
| Date fetched |
Epoch osculation |
Inc. [°] |
Ecc. | RA asc node [hr] |
Arg Peri. [°] |
Mean anom [°] |
Mean motion [rev/day] |
Abs. mag |
| 2026 May 03 17:57 | 2026 Apr 30 10:18:43 | 98.7318 | 0.00107 | 19.2049 | 207.4128 | 181.8688 | 15.09385 | – |
| 2026 May 02 17:57 | 2026 Apr 30 10:18:43 | 98.7318 | 0.00107 | 19.2049 | 207.4128 | 181.8688 | 15.09385 | – |
| 2026 May 01 17:56 | 2026 Apr 30 10:18:43 | 98.7318 | 0.00107 | 19.2049 | 207.4128 | 181.8688 | 15.09385 | – |
| 2026 Apr 30 17:56 | 2026 Apr 30 10:18:43 | 98.7318 | 0.00107 | 19.2049 | 207.4128 | 181.8688 | 15.09385 | – |
| 2026 Apr 29 17:57 | 2026 Apr 24 00:21:58 | 98.7346 | 0.00112 | 18.7188 | 220.7279 | 181.8688 | 15.09385 | – |
| 2026 Apr 28 17:56 | 2026 Apr 24 00:21:58 | 98.7346 | 0.00112 | 18.7188 | 220.7279 | 181.8688 | 15.09385 | – |
| 2026 Apr 27 17:58 | 2026 Apr 24 00:21:58 | 98.7346 | 0.00112 | 18.7188 | 220.7279 | 181.8688 | 15.09385 | – |
| 2026 Apr 26 17:58 | 2026 Apr 24 00:21:58 | 98.7346 | 0.00112 | 18.7188 | 220.7279 | 181.8688 | 15.09385 | – |
| 2026 Apr 25 17:58 | 2026 Apr 24 00:21:58 | 98.7346 | 0.00112 | 18.7188 | 220.7279 | 181.8688 | 15.09385 | – |
| 2026 Apr 24 17:59 | 2026 Apr 24 00:21:58 | 98.7346 | 0.00112 | 18.7188 | 220.7279 | 181.8688 | 15.09385 | – |
| 2026 Apr 23 17:57 | 2026 Apr 17 10:16:03 | 98.7314 | 0.00114 | 18.2204 | 238.1335 | 181.8688 | 15.09385 | – |
| 2026 Apr 22 17:57 | 2026 Apr 17 10:16:03 | 98.7314 | 0.00114 | 18.2204 | 238.1335 | 181.8688 | 15.09385 | – |
| 2026 Apr 21 17:57 | 2026 Apr 17 10:16:03 | 98.7314 | 0.00114 | 18.2204 | 238.1335 | 181.8688 | 15.09385 | – |
| 2026 Apr 20 17:57 | 2026 Apr 17 10:16:03 | 98.7314 | 0.00114 | 18.2204 | 238.1335 | 181.8688 | 15.09385 | – |
| 2026 Apr 19 17:58 | 2026 Apr 17 10:16:03 | 98.7314 | 0.00114 | 18.2204 | 238.1335 | 181.8688 | 15.09385 | – |
| 2026 Apr 18 17:56 | 2026 Apr 12 10:56:35 | 98.7317 | 0.00108 | 17.8444 | 251.6608 | 181.8688 | 15.09385 | – |
| 2026 Apr 16 17:57 | 2026 Apr 12 10:56:35 | 98.7317 | 0.00108 | 17.8444 | 251.6608 | 181.8688 | 15.09385 | – |
| 2026 Apr 14 17:57 | 2026 Apr 12 10:56:35 | 98.7317 | 0.00108 | 17.8444 | 251.6608 | 181.8688 | 15.09385 | – |
| 2026 Apr 13 17:57 | 2026 Apr 12 10:56:35 | 98.7317 | 0.00108 | 17.8444 | 251.6608 | 181.8688 | 15.09385 | – |
| 2026 Apr 12 17:57 | 2026 Apr 08 09:35:04 | 98.7323 | 0.00108 | 17.5379 | 262.7185 | 181.8688 | 15.09385 | – |
| 2026 Apr 11 17:57 | 2026 Apr 08 09:35:04 | 98.7323 | 0.00108 | 17.5379 | 262.7185 | 181.8688 | 15.09385 | – |
| 2026 Apr 10 17:58 | 2026 Apr 08 09:35:04 | 98.7323 | 0.00108 | 17.5379 | 262.7185 | 181.8688 | 15.09385 | – |
| 2026 Apr 09 18:01 | 2026 Apr 08 09:35:04 | 98.7323 | 0.00108 | 17.5379 | 262.7185 | 181.8688 | 15.09385 | – |
| 2026 Apr 08 17:57 | 2026 Apr 08 09:35:04 | 98.7323 | 0.00108 | 17.5379 | 262.7185 | 181.8688 | 15.09385 | – |
| 2026 Apr 07 17:57 | 2026 Apr 01 10:08:47 | 98.7301 | 0.00107 | 17.0116 | 275.9614 | 181.8688 | 15.09385 | – |
| 2026 Apr 06 17:57 | 2026 Apr 01 10:08:47 | 98.7301 | 0.00107 | 17.0116 | 275.9614 | 181.8688 | 15.09385 | – |